sensor_id;sensor_type;location;lat;lon;timestamp;P1;durP1;ratioP1;P2;durP2;ratioP2
10154;SDS011;5118;48.570;7.916;2023-05-07T00:01:49;10.17;;;9.17;;
10154;SDS011;5118;48.570;7.916;2023-05-07T00:04:18;9.80;;;8.83;;
10154;SDS011;5118;48.570;7.916;2023-05-07T00:06:47;11.17;;;9.30;;
10154;SDS011;5118;48.570;7.916;2023-05-07T00:09:17;9.93;;;9.00;;
10154;SDS011;5118;48.570;7.916;2023-05-07T00:11:45;11.20;;;10.20;;
10154;SDS011;5118;48.570;7.916;2023-05-07T00:14:13;10.40;;;9.40;;
10154;SDS011;5118;48.570;7.916;2023-05-07T00:16:42;11.10;;;10.10;;
10154;SDS011;5118;48.570;7.916;2023-05-07T00:19:10;9.93;;;9.03;;
10154;SDS011;5118;48.570;7.916;2023-05-07T00:21:38;11.17;;;10.17;;
10154;SDS011;5118;48.570;7.916;2023-05-07T00:24:07;10.50;;;9.40;;
10154;SDS011;5118;48.570;7.916;2023-05-07T00:26:36;9.67;;;8.77;;
10154;SDS011;5118;48.570;7.916;2023-05-07T00:29:05;10.20;;;8.50;;
10154;SDS011;5118;48.570;7.916;2023-05-07T00:31:33;8.90;;;8.00;;
10154;SDS011;5118;48.570;7.916;2023-05-07T00:34:01;9.43;;;8.43;;
10154;SDS011;5118;48.570;7.916;2023-05-07T00:36:30;8.63;;;7.90;;
10154;SDS011;5118;48.570;7.916;2023-05-07T00:38:59;8.83;;;8.10;;
10154;SDS011;5118;48.570;7.916;2023-05-07T00:41:28;11.97;;;9.93;;
10154;SDS011;5118;48.570;7.916;2023-05-07T00:43:59;13.70;;;10.87;;
10154;SDS011;5118;48.570;7.916;2023-05-07T00:46:28;10.63;;;9.57;;
10154;SDS011;5118;48.570;7.916;2023-05-07T00:48:59;10.40;;;9.50;;
10154;SDS011;5118;48.570;7.916;2023-05-07T00:51:28;10.00;;;9.10;;
10154;SDS011;5118;48.570;7.916;2023-05-07T00:53:57;9.53;;;8.53;;
10154;SDS011;5118;48.570;7.916;2023-05-07T00:56:26;9.57;;;8.67;;
10154;SDS011;5118;48.570;7.916;2023-05-07T00:58:54;10.73;;;8.23;;
10154;SDS011;5118;48.570;7.916;2023-05-07T01:01:24;10.60;;;9.50;;
10154;SDS011;5118;48.570;7.916;2023-05-07T01:03:54;8.87;;;8.07;;
10154;SDS011;5118;48.570;7.916;2023-05-07T01:06:23;7.30;;;6.70;;
10154;SDS011;5118;48.570;7.916;2023-05-07T01:08:54;8.03;;;6.40;;
10154;SDS011;5118;48.570;7.916;2023-05-07T01:11:23;6.90;;;6.40;;
10154;SDS011;5118;48.570;7.916;2023-05-07T01:13:52;6.87;;;6.27;;
10154;SDS011;5118;48.570;7.916;2023-05-07T01:16:21;8.53;;;7.73;;
10154;SDS011;5118;48.570;7.916;2023-05-07T01:18:51;7.97;;;7.17;;
10154;SDS011;5118;48.570;7.916;2023-05-07T01:21:19;9.23;;;7.30;;
10154;SDS011;5118;48.570;7.916;2023-05-07T01:23:58;9.67;;;8.67;;
10154;SDS011;5118;48.570;7.916;2023-05-07T01:26:28;9.43;;;8.63;;
10154;SDS011;5118;48.570;7.916;2023-05-07T01:28:56;9.63;;;8.83;;
10154;SDS011;5118;48.570;7.916;2023-05-07T01:31:24;10.90;;;9.80;;
10154;SDS011;5118;48.570;7.916;2023-05-07T01:33:53;12.20;;;10.03;;
10154;SDS011;5118;48.570;7.916;2023-05-07T01:36:23;10.93;;;9.93;;
10154;SDS011;5118;48.570;7.916;2023-05-07T01:38:54;10.97;;;9.93;;
10154;SDS011;5118;48.570;7.916;2023-05-07T01:41:26;11.40;;;10.30;;
10154;SDS011;5118;48.570;7.916;2023-05-07T01:43:54;11.87;;;10.90;;
10154;SDS011;5118;48.570;7.916;2023-05-07T01:46:24;14.07;;;11.57;;
10154;SDS011;5118;48.570;7.916;2023-05-07T01:48:54;11.77;;;10.63;;
10154;SDS011;5118;48.570;7.916;2023-05-07T01:51:22;12.07;;;10.90;;
10154;SDS011;5118;48.570;7.916;2023-05-07T01:53:52;11.60;;;10.60;;
10154;SDS011;5118;48.570;7.916;2023-05-07T01:56:20;11.70;;;10.50;;
10154;SDS011;5118;48.570;7.916;2023-05-07T01:58:50;10.60;;;9.70;;
10154;SDS011;5118;48.570;7.916;2023-05-07T02:01:19;11.07;;;10.00;;
10154;SDS011;5118;48.570;7.916;2023-05-07T02:03:48;13.77;;;9.73;;
10154;SDS011;5118;48.570;7.916;2023-05-07T02:06:22;10.40;;;9.50;;
10154;SDS011;5118;48.570;7.916;2023-05-07T02:08:55;10.23;;;9.33;;
10154;SDS011;5118;48.570;7.916;2023-05-07T02:11:23;10.80;;;9.87;;
10154;SDS011;5118;48.570;7.916;2023-05-07T02:13:53;11.57;;;10.47;;
10154;SDS011;5118;48.570;7.916;2023-05-07T02:16:22;10.90;;;9.90;;
10154;SDS011;5118;48.570;7.916;2023-05-07T02:18:51;12.63;;;11.40;;
10154;SDS011;5118;48.570;7.916;2023-05-07T02:21:20;12.00;;;10.63;;
10154;SDS011;5118;48.570;7.916;2023-05-07T02:23:48;13.60;;;12.30;;
10154;SDS011;5118;48.570;7.916;2023-05-07T02:26:17;12.33;;;11.13;;
10154;SDS011;5118;48.570;7.916;2023-05-07T02:28:45;12.70;;;11.60;;
10154;SDS011;5118;48.570;7.916;2023-05-07T02:31:15;11.90;;;10.90;;
10154;SDS011;5118;48.570;7.916;2023-05-07T02:33:43;12.47;;;11.17;;
10154;SDS011;5118;48.570;7.916;2023-05-07T02:36:14;12.00;;;10.90;;
10154;SDS011;5118;48.570;7.916;2023-05-07T02:38:53;12.07;;;11.00;;
10154;SDS011;5118;48.570;7.916;2023-05-07T02:41:22;12.53;;;11.33;;
10154;SDS011;5118;48.570;7.916;2023-05-07T02:43:50;11.53;;;10.43;;
10154;SDS011;5118;48.570;7.916;2023-05-07T02:46:20;12.00;;;10.80;;
10154;SDS011;5118;48.570;7.916;2023-05-07T02:48:56;11.97;;;10.87;;
10154;SDS011;5118;48.570;7.916;2023-05-07T02:51:25;12.07;;;10.60;;
10154;SDS011;5118;48.570;7.916;2023-05-07T02:53:56;12.03;;;11.03;;
10154;SDS011;5118;48.570;7.916;2023-05-07T02:56:26;11.37;;;10.37;;
10154;SDS011;5118;48.570;7.916;2023-05-07T02:58:55;12.20;;;11.07;;
10154;SDS011;5118;48.570;7.916;2023-05-07T03:01:28;11.20;;;10.20;;
10154;SDS011;5118;48.570;7.916;2023-05-07T03:04:03;11.67;;;10.50;;
10154;SDS011;5118;48.570;7.916;2023-05-07T03:06:32;11.37;;;10.47;;
10154;SDS011;5118;48.570;7.916;2023-05-07T03:09:00;11.90;;;10.90;;
10154;SDS011;5118;48.570;7.916;2023-05-07T03:11:29;10.37;;;9.37;;
10154;SDS011;5118;48.570;7.916;2023-05-07T03:13:57;11.27;;;10.17;;
10154;SDS011;5118;48.570;7.916;2023-05-07T03:16:25;11.17;;;10.20;;
10154;SDS011;5118;48.570;7.916;2023-05-07T03:18:55;11.47;;;10.47;;
10154;SDS011;5118;48.570;7.916;2023-05-07T03:21:24;10.90;;;9.83;;
10154;SDS011;5118;48.570;7.916;2023-05-07T03:23:53;11.67;;;10.47;;
10154;SDS011;5118;48.570;7.916;2023-05-07T03:26:21;11.33;;;10.20;;
10154;SDS011;5118;48.570;7.916;2023-05-07T03:28:49;11.17;;;10.17;;
10154;SDS011;5118;48.570;7.916;2023-05-07T03:31:18;12.70;;;11.50;;
10154;SDS011;5118;48.570;7.916;2023-05-07T03:33:50;11.80;;;10.70;;
10154;SDS011;5118;48.570;7.916;2023-05-07T03:36:20;12.70;;;11.50;;
10154;SDS011;5118;48.570;7.916;2023-05-07T03:38:49;16.20;;;14.50;;
10154;SDS011;5118;48.570;7.916;2023-05-07T03:41:21;11.60;;;10.50;;
10154;SDS011;5118;48.570;7.916;2023-05-07T03:43:49;10.17;;;9.17;;
10154;SDS011;5118;48.570;7.916;2023-05-07T03:46:17;10.23;;;9.40;;
10154;SDS011;5118;48.570;7.916;2023-05-07T03:48:46;10.17;;;9.17;;
10154;SDS011;5118;48.570;7.916;2023-05-07T03:51:15;10.80;;;9.77;;
10154;SDS011;5118;48.570;7.916;2023-05-07T03:53:45;12.00;;;11.00;;
10154;SDS011;5118;48.570;7.916;2023-05-07T03:56:14;14.10;;;11.80;;
10154;SDS011;5118;48.570;7.916;2023-05-07T03:58:45;13.30;;;12.00;;
10154;SDS011;5118;48.570;7.916;2023-05-07T04:01:15;17.00;;;15.60;;
10154;SDS011;5118;48.570;7.916;2023-05-07T04:03:43;17.43;;;15.80;;
10154;SDS011;5118;48.570;7.916;2023-05-07T04:06:12;13.43;;;12.23;;
10154;SDS011;5118;48.570;7.916;2023-05-07T04:08:44;13.60;;;12.50;;
10154;SDS011;5118;48.570;7.916;2023-05-07T04:11:13;14.73;;;13.33;;
10154;SDS011;5118;48.570;7.916;2023-05-07T04:13:41;17.47;;;15.77;;
10154;SDS011;5118;48.570;7.916;2023-05-07T04:16:10;18.77;;;17.07;;
10154;SDS011;5118;48.570;7.916;2023-05-07T04:18:38;16.97;;;15.27;;
10154;SDS011;5118;48.570;7.916;2023-05-07T04:21:13;16.07;;;14.57;;
10154;SDS011;5118;48.570;7.916;2023-05-07T04:23:42;15.63;;;14.23;;
10154;SDS011;5118;48.570;7.916;2023-05-07T04:26:13;16.20;;;14.57;;
10154;SDS011;5118;48.570;7.916;2023-05-07T04:28:43;15.13;;;13.70;;
10154;SDS011;5118;48.570;7.916;2023-05-07T04:31:11;14.53;;;12.77;;
10154;SDS011;5118;48.570;7.916;2023-05-07T04:33:40;11.47;;;10.37;;
10154;SDS011;5118;48.570;7.916;2023-05-07T04:36:11;15.13;;;13.70;;
10154;SDS011;5118;48.570;7.916;2023-05-07T04:38:50;15.40;;;14.00;;
10154;SDS011;5118;48.570;7.916;2023-05-07T04:41:19;15.17;;;13.67;;
10154;SDS011;5118;48.570;7.916;2023-05-07T04:43:48;16.33;;;14.73;;
10154;SDS011;5118;48.570;7.916;2023-05-07T04:46:19;16.93;;;15.33;;
10154;SDS011;5118;48.570;7.916;2023-05-07T04:48:48;14.83;;;13.50;;
10154;SDS011;5118;48.570;7.916;2023-05-07T04:51:17;14.17;;;12.90;;
10154;SDS011;5118;48.570;7.916;2023-05-07T04:53:45;14.27;;;12.87;;
10154;SDS011;5118;48.570;7.916;2023-05-07T04:56:15;14.17;;;12.93;;
10154;SDS011;5118;48.570;7.916;2023-05-07T04:58:45;17.00;;;15.13;;
10154;SDS011;5118;48.570;7.916;2023-05-07T05:01:15;15.60;;;14.20;;
10154;SDS011;5118;48.570;7.916;2023-05-07T05:03:44;14.83;;;13.43;;
10154;SDS011;5118;48.570;7.916;2023-05-07T05:06:12;16.70;;;15.10;;
10154;SDS011;5118;48.570;7.916;2023-05-07T05:08:41;14.83;;;13.30;;
10154;SDS011;5118;48.570;7.916;2023-05-07T05:11:09;15.43;;;14.00;;
10154;SDS011;5118;48.570;7.916;2023-05-07T05:13:40;14.50;;;13.07;;
10154;SDS011;5118;48.570;7.916;2023-05-07T05:16:14;14.30;;;13.00;;
10154;SDS011;5118;48.570;7.916;2023-05-07T05:18:43;14.87;;;13.37;;
10154;SDS011;5118;48.570;7.916;2023-05-07T05:21:13;14.63;;;13.33;;
10154;SDS011;5118;48.570;7.916;2023-05-07T05:23:43;13.60;;;12.30;;
10154;SDS011;5118;48.570;7.916;2023-05-07T05:26:14;11.70;;;10.50;;
10154;SDS011;5118;48.570;7.916;2023-05-07T05:28:44;9.93;;;8.43;;
10154;SDS011;5118;48.570;7.916;2023-05-07T05:31:15;8.53;;;7.73;;
10154;SDS011;5118;48.570;7.916;2023-05-07T05:33:45;8.73;;;7.80;;
10154;SDS011;5118;48.570;7.916;2023-05-07T05:36:13;8.67;;;7.67;;
10154;SDS011;5118;48.570;7.916;2023-05-07T05:38:45;8.80;;;7.90;;
10154;SDS011;5118;48.570;7.916;2023-05-07T05:41:13;8.93;;;8.03;;
10154;SDS011;5118;48.570;7.916;2023-05-07T05:43:42;8.17;;;7.37;;
10154;SDS011;5118;48.570;7.916;2023-05-07T05:46:13;8.17;;;7.47;;
10154;SDS011;5118;48.570;7.916;2023-05-07T05:48:42;8.03;;;7.43;;
10154;SDS011;5118;48.570;7.916;2023-05-07T05:51:11;7.93;;;7.23;;
10154;SDS011;5118;48.570;7.916;2023-05-07T05:53:39;7.80;;;7.10;;
10154;SDS011;5118;48.570;7.916;2023-05-07T05:56:08;8.30;;;7.47;;
10154;SDS011;5118;48.570;7.916;2023-05-07T05:58:39;8.87;;;8.07;;
10154;SDS011;5118;48.570;7.916;2023-05-07T06:01:09;8.90;;;8.03;;
10154;SDS011;5118;48.570;7.916;2023-05-07T06:03:38;8.90;;;8.10;;
10154;SDS011;5118;48.570;7.916;2023-05-07T06:06:12;9.00;;;8.17;;
10154;SDS011;5118;48.570;7.916;2023-05-07T06:08:43;9.20;;;8.40;;
10154;SDS011;5118;48.570;7.916;2023-05-07T06:11:16;9.33;;;8.33;;
10154;SDS011;5118;48.570;7.916;2023-05-07T06:13:46;9.97;;;8.63;;
10154;SDS011;5118;48.570;7.916;2023-05-07T06:16:15;9.77;;;8.87;;
10154;SDS011;5118;48.570;7.916;2023-05-07T06:18:44;9.90;;;8.50;;
10154;SDS011;5118;48.570;7.916;2023-05-07T06:21:14;9.00;;;8.20;;
10154;SDS011;5118;48.570;7.916;2023-05-07T06:23:42;9.40;;;8.50;;
10154;SDS011;5118;48.570;7.916;2023-05-07T06:26:11;12.77;;;8.57;;
10154;SDS011;5118;48.570;7.916;2023-05-07T06:28:42;10.07;;;9.07;;
10154;SDS011;5118;48.570;7.916;2023-05-07T06:31:13;9.23;;;8.50;;
10154;SDS011;5118;48.570;7.916;2023-05-07T06:33:47;9.50;;;8.60;;
10154;SDS011;5118;48.570;7.916;2023-05-07T06:36:18;8.90;;;8.10;;
10154;SDS011;5118;48.570;7.916;2023-05-07T06:38:46;9.30;;;8.40;;
10154;SDS011;5118;48.570;7.916;2023-05-07T06:41:15;9.20;;;8.30;;
10154;SDS011;5118;48.570;7.916;2023-05-07T06:43:43;9.70;;;8.80;;
10154;SDS011;5118;48.570;7.916;2023-05-07T06:46:29;9.07;;;8.27;;
10154;SDS011;5118;48.570;7.916;2023-05-07T06:48:59;9.43;;;8.63;;
10154;SDS011;5118;48.570;7.916;2023-05-07T06:51:28;9.07;;;8.20;;
10154;SDS011;5118;48.570;7.916;2023-05-07T06:54:00;8.87;;;8.07;;
10154;SDS011;5118;48.570;7.916;2023-05-07T06:56:32;9.03;;;8.23;;
10154;SDS011;5118;48.570;7.916;2023-05-07T06:59:02;9.60;;;7.70;;
10154;SDS011;5118;48.570;7.916;2023-05-07T07:01:35;8.27;;;7.57;;
10154;SDS011;5118;48.570;7.916;2023-05-07T07:04:06;8.90;;;8.00;;
10154;SDS011;5118;48.570;7.916;2023-05-07T07:06:36;9.30;;;8.27;;
10154;SDS011;5118;48.570;7.916;2023-05-07T07:09:08;8.70;;;7.90;;
10154;SDS011;5118;48.570;7.916;2023-05-07T07:11:37;11.83;;;8.07;;
10154;SDS011;5118;48.570;7.916;2023-05-07T07:14:06;9.07;;;7.80;;
10154;SDS011;5118;48.570;7.916;2023-05-07T07:16:40;8.93;;;8.10;;
10154;SDS011;5118;48.570;7.916;2023-05-07T07:19:10;9.33;;;8.40;;
10154;SDS011;5118;48.570;7.916;2023-05-07T07:21:38;9.63;;;8.63;;
10154;SDS011;5118;48.570;7.916;2023-05-07T07:24:07;9.10;;;8.20;;
10154;SDS011;5118;48.570;7.916;2023-05-07T07:26:35;9.20;;;8.30;;
10154;SDS011;5118;48.570;7.916;2023-05-07T07:29:04;10.07;;;8.70;;
10154;SDS011;5118;48.570;7.916;2023-05-07T07:31:33;12.23;;;8.10;;
10154;SDS011;5118;48.570;7.916;2023-05-07T07:34:01;9.90;;;9.00;;
10154;SDS011;5118;48.570;7.916;2023-05-07T07:36:31;9.20;;;8.43;;
10154;SDS011;5118;48.570;7.916;2023-05-07T07:39:13;9.43;;;8.63;;
10154;SDS011;5118;48.570;7.916;2023-05-07T07:41:42;9.30;;;8.30;;
10154;SDS011;5118;48.570;7.916;2023-05-07T07:44:11;8.87;;;8.17;;
10154;SDS011;5118;48.570;7.916;2023-05-07T07:46:44;9.93;;;9.00;;
10154;SDS011;5118;48.570;7.916;2023-05-07T07:49:13;11.07;;;8.83;;
10154;SDS011;5118;48.570;7.916;2023-05-07T07:51:44;9.87;;;8.97;;
10154;SDS011;5118;48.570;7.916;2023-05-07T07:54:15;9.50;;;8.60;;
10154;SDS011;5118;48.570;7.916;2023-05-07T07:56:44;9.10;;;8.30;;
10154;SDS011;5118;48.570;7.916;2023-05-07T07:59:13;10.03;;;9.03;;
10154;SDS011;5118;48.570;7.916;2023-05-07T08:01:46;9.13;;;8.40;;
10154;SDS011;5118;48.570;7.916;2023-05-07T08:04:20;8.93;;;7.90;;
10154;SDS011;5118;48.570;7.916;2023-05-07T08:06:51;9.30;;;8.40;;
10154;SDS011;5118;48.570;7.916;2023-05-07T08:09:21;9.27;;;8.47;;
10154;SDS011;5118;48.570;7.916;2023-05-07T08:11:50;9.07;;;8.17;;
10154;SDS011;5118;48.570;7.916;2023-05-07T08:14:19;8.60;;;7.70;;
10154;SDS011;5118;48.570;7.916;2023-05-07T08:16:47;8.63;;;7.70;;
10154;SDS011;5118;48.570;7.916;2023-05-07T08:19:16;9.23;;;8.32;;
10154;SDS011;5118;48.570;7.916;2023-05-07T08:21:44;8.20;;;7.47;;
10154;SDS011;5118;48.570;7.916;2023-05-07T08:24:15;9.15;;;8.32;;
10154;SDS011;5118;48.570;7.916;2023-05-07T08:26:45;9.20;;;8.30;;
10154;SDS011;5118;48.570;7.916;2023-05-07T08:29:14;8.75;;;7.82;;
10154;SDS011;5118;48.570;7.916;2023-05-07T08:31:42;8.73;;;8.02;;
10154;SDS011;5118;48.570;7.916;2023-05-07T08:34:11;8.63;;;7.90;;
10154;SDS011;5118;48.570;7.916;2023-05-07T08:36:42;7.68;;;7.07;;
10154;SDS011;5118;48.570;7.916;2023-05-07T08:39:16;8.25;;;7.55;;
10154;SDS011;5118;48.570;7.916;2023-05-07T08:41:47;7.18;;;6.47;;
10154;SDS011;5118;48.570;7.916;2023-05-07T08:44:20;9.25;;;7.07;;
10154;SDS011;5118;48.570;7.916;2023-05-07T08:46:50;8.73;;;7.88;;
10154;SDS011;5118;48.570;7.916;2023-05-07T08:49:21;8.90;;;8.00;;
10154;SDS011;5118;48.570;7.916;2023-05-07T08:51:51;8.40;;;7.60;;
10154;SDS011;5118;48.570;7.916;2023-05-07T08:54:21;9.18;;;7.03;;
10154;SDS011;5118;48.570;7.916;2023-05-07T08:56:50;7.90;;;7.20;;
10154;SDS011;5118;48.570;7.916;2023-05-07T08:59:19;7.03;;;6.32;;
10154;SDS011;5118;48.570;7.916;2023-05-07T09:01:47;6.53;;;6.03;;
10154;SDS011;5118;48.570;7.916;2023-05-07T09:04:16;7.10;;;6.40;;
10154;SDS011;5118;48.570;7.916;2023-05-07T09:06:45;6.30;;;5.80;;
10154;SDS011;5118;48.570;7.916;2023-05-07T09:09:16;6.80;;;6.20;;
10154;SDS011;5118;48.570;7.916;2023-05-07T09:11:47;7.05;;;6.45;;
10154;SDS011;5118;48.570;7.916;2023-05-07T09:14:18;7.25;;;6.30;;
10154;SDS011;5118;48.570;7.916;2023-05-07T09:16:51;7.20;;;6.60;;
10154;SDS011;5118;48.570;7.916;2023-05-07T09:19:22;5.65;;;5.15;;
10154;SDS011;5118;48.570;7.916;2023-05-07T09:21:57;5.80;;;5.20;;
10154;SDS011;5118;48.570;7.916;2023-05-07T09:24:29;5.68;;;5.18;;
10154;SDS011;5118;48.570;7.916;2023-05-07T09:27:04;6.43;;;5.75;;
10154;SDS011;5118;48.570;7.916;2023-05-07T09:29:33;6.63;;;5.28;;
10154;SDS011;5118;48.570;7.916;2023-05-07T09:32:03;5.25;;;4.82;;
10154;SDS011;5118;48.570;7.916;2023-05-07T09:34:33;5.40;;;4.90;;
10154;SDS011;5118;48.570;7.916;2023-05-07T09:37:04;6.65;;;4.70;;
10154;SDS011;5118;48.570;7.916;2023-05-07T09:39:40;5.50;;;4.50;;
10154;SDS011;5118;48.570;7.916;2023-05-07T09:42:12;8.00;;;4.50;;
10154;SDS011;5118;48.570;7.916;2023-05-07T09:44:43;5.18;;;4.68;;
10154;SDS011;5118;48.570;7.916;2023-05-07T09:47:16;5.38;;;4.88;;
10154;SDS011;5118;48.570;7.916;2023-05-07T09:49:50;5.63;;;5.20;;
10154;SDS011;5118;48.570;7.916;2023-05-07T09:52:23;5.35;;;4.70;;
10154;SDS011;5118;48.570;7.916;2023-05-07T09:54:55;5.20;;;4.80;;
10154;SDS011;5118;48.570;7.916;2023-05-07T09:57:29;5.50;;;5.00;;
10154;SDS011;5118;48.570;7.916;2023-05-07T10:00:04;5.22;;;4.72;;
10154;SDS011;5118;48.570;7.916;2023-05-07T10:02:48;5.25;;;4.70;;
10154;SDS011;5118;48.570;7.916;2023-05-07T10:05:27;5.82;;;5.22;;
10154;SDS011;5118;48.570;7.916;2023-05-07T10:07:58;6.40;;;5.57;;
10154;SDS011;5118;48.570;7.916;2023-05-07T10:10:32;6.80;;;6.20;;
10154;SDS011;5118;48.570;7.916;2023-05-07T10:13:05;7.32;;;6.63;;
10154;SDS011;5118;48.570;7.916;2023-05-07T10:15:41;6.65;;;6.13;;
10154;SDS011;5118;48.570;7.916;2023-05-07T10:18:10;8.13;;;6.63;;
10154;SDS011;5118;48.570;7.916;2023-05-07T10:20:45;7.20;;;6.60;;
10154;SDS011;5118;48.570;7.916;2023-05-07T10:23:16;6.80;;;6.20;;
10154;SDS011;5118;48.570;7.916;2023-05-07T10:25:52;5.57;;;5.07;;
10154;SDS011;5118;48.570;7.916;2023-05-07T10:28:28;6.90;;;6.30;;
10154;SDS011;5118;48.570;7.916;2023-05-07T10:31:02;5.22;;;4.63;;
10154;SDS011;5118;48.570;7.916;2023-05-07T10:33:46;5.53;;;5.03;;
10154;SDS011;5118;48.570;7.916;2023-05-07T10:36:20;6.28;;;5.60;;
10154;SDS011;5118;48.570;7.916;2023-05-07T10:38:52;7.07;;;6.45;;
10154;SDS011;5118;48.570;7.916;2023-05-07T10:41:20;6.38;;;5.88;;
10154;SDS011;5118;48.570;7.916;2023-05-07T10:43:51;8.55;;;6.22;;
10154;SDS011;5118;48.570;7.916;2023-05-07T10:46:27;7.60;;;5.95;;
10154;SDS011;5118;48.570;7.916;2023-05-07T10:49:11;6.20;;;5.60;;
10154;SDS011;5118;48.570;7.916;2023-05-07T10:52:12;6.10;;;5.57;;
10154;SDS011;5118;48.570;7.916;2023-05-07T10:55:18;6.15;;;5.53;;
10154;SDS011;5118;48.570;7.916;2023-05-07T10:57:57;6.70;;;6.10;;
10154;SDS011;5118;48.570;7.916;2023-05-07T11:04:28;6.75;;;6.15;;
10154;SDS011;5118;48.570;7.916;2023-05-07T11:07:24;9.10;;;6.45;;
10154;SDS011;5118;48.570;7.916;2023-05-07T11:10:05;10.27;;;6.18;;
10154;SDS011;5118;48.570;7.916;2023-05-07T11:12:54;7.40;;;6.70;;
10154;SDS011;5118;48.570;7.916;2023-05-07T11:15:40;7.03;;;6.30;;
10154;SDS011;5118;48.570;7.916;2023-05-07T11:18:30;6.50;;;5.93;;
10154;SDS011;5118;48.570;7.916;2023-05-07T11:24:14;7.20;;;6.07;;
10154;SDS011;5118;48.570;7.916;2023-05-07T11:26:51;6.80;;;6.22;;
10154;SDS011;5118;48.570;7.916;2023-05-07T11:29:21;7.82;;;7.13;;
10154;SDS011;5118;48.570;7.916;2023-05-07T11:32:02;7.60;;;6.95;;
10154;SDS011;5118;48.570;7.916;2023-05-07T11:34:40;7.68;;;6.88;;
10154;SDS011;5118;48.570;7.916;2023-05-07T11:37:10;7.53;;;6.93;;
10154;SDS011;5118;48.570;7.916;2023-05-07T11:40:01;7.60;;;6.90;;
10154;SDS011;5118;48.570;7.916;2023-05-07T11:42:31;8.02;;;7.22;;
10154;SDS011;5118;48.570;7.916;2023-05-07T11:45:01;7.53;;;6.75;;
10154;SDS011;5118;48.570;7.916;2023-05-07T11:47:30;7.90;;;7.20;;
10154;SDS011;5118;48.570;7.916;2023-05-07T11:50:03;8.40;;;7.70;;
10154;SDS011;5118;48.570;7.916;2023-05-07T11:52:34;7.50;;;6.90;;
10154;SDS011;5118;48.570;7.916;2023-05-07T11:55:03;7.05;;;6.47;;
10154;SDS011;5118;48.570;7.916;2023-05-07T11:57:32;6.63;;;5.97;;
10154;SDS011;5118;48.570;7.916;2023-05-07T12:00:02;6.88;;;6.00;;
10154;SDS011;5118;48.570;7.916;2023-05-07T12:02:39;6.07;;;5.50;;
10154;SDS011;5118;48.570;7.916;2023-05-07T12:05:10;6.03;;;5.10;;
10154;SDS011;5118;48.570;7.916;2023-05-07T12:07:39;4.40;;;4.10;;
10154;SDS011;5118;48.570;7.916;2023-05-07T12:10:09;4.60;;;4.20;;
10154;SDS011;5118;48.570;7.916;2023-05-07T12:12:39;4.88;;;4.38;;
10154;SDS011;5118;48.570;7.916;2023-05-07T12:15:09;6.65;;;4.43;;
10154;SDS011;5118;48.570;7.916;2023-05-07T12:17:38;5.65;;;4.38;;
10154;SDS011;5118;48.570;7.916;2023-05-07T12:20:07;5.95;;;4.60;;
10154;SDS011;5118;48.570;7.916;2023-05-07T12:22:38;5.82;;;4.20;;
10154;SDS011;5118;48.570;7.916;2023-05-07T12:25:07;5.60;;;5.00;;
10154;SDS011;5118;48.570;7.916;2023-05-07T12:27:36;4.95;;;4.50;;
10154;SDS011;5118;48.570;7.916;2023-05-07T12:30:09;5.93;;;5.30;;
10154;SDS011;5118;48.570;7.916;2023-05-07T12:32:39;6.70;;;5.95;;
10154;SDS011;5118;48.570;7.916;2023-05-07T12:35:09;6.32;;;5.70;;
10154;SDS011;5118;48.570;7.916;2023-05-07T12:37:38;7.10;;;6.50;;
10154;SDS011;5118;48.570;7.916;2023-05-07T12:40:09;9.20;;;5.97;;
10154;SDS011;5118;48.570;7.916;2023-05-07T12:42:39;6.90;;;6.30;;
10154;SDS011;5118;48.570;7.916;2023-05-07T12:45:09;6.78;;;6.18;;
10154;SDS011;5118;48.570;7.916;2023-05-07T12:47:39;6.82;;;6.22;;
10154;SDS011;5118;48.570;7.916;2023-05-07T12:50:13;6.95;;;6.30;;
10154;SDS011;5118;48.570;7.916;2023-05-07T12:52:42;6.18;;;5.68;;
10154;SDS011;5118;48.570;7.916;2023-05-07T12:55:12;7.70;;;5.88;;
10154;SDS011;5118;48.570;7.916;2023-05-07T12:57:42;6.63;;;5.30;;
10154;SDS011;5118;48.570;7.916;2023-05-07T13:00:12;5.13;;;4.72;;
10154;SDS011;5118;48.570;7.916;2023-05-07T13:02:41;6.25;;;5.65;;
10154;SDS011;5118;48.570;7.916;2023-05-07T13:05:11;6.00;;;5.50;;
10154;SDS011;5118;48.570;7.916;2023-05-07T13:07:41;5.95;;;5.38;;
10154;SDS011;5118;48.570;7.916;2023-05-07T13:10:21;5.05;;;4.65;;
10154;SDS011;5118;48.570;7.916;2023-05-07T13:12:50;5.40;;;4.90;;
10154;SDS011;5118;48.570;7.916;2023-05-07T13:15:19;5.53;;;4.50;;
10154;SDS011;5118;48.570;7.916;2023-05-07T13:17:48;4.85;;;4.45;;
10154;SDS011;5118;48.570;7.916;2023-05-07T13:20:16;4.28;;;3.70;;
10154;SDS011;5118;48.570;7.916;2023-05-07T13:22:46;3.67;;;3.38;;
10154;SDS011;5118;48.570;7.916;2023-05-07T13:25:14;5.45;;;3.10;;
10154;SDS011;5118;48.570;7.916;2023-05-07T13:27:43;3.92;;;3.10;;
10154;SDS011;5118;48.570;7.916;2023-05-07T13:30:12;3.40;;;3.10;;
10154;SDS011;5118;48.570;7.916;2023-05-07T13:32:40;4.18;;;3.40;;
10154;SDS011;5118;48.570;7.916;2023-05-07T13:35:08;3.40;;;3.10;;
10154;SDS011;5118;48.570;7.916;2023-05-07T13:37:37;5.47;;;3.42;;
10154;SDS011;5118;48.570;7.916;2023-05-07T13:40:08;3.60;;;3.30;;
10154;SDS011;5118;48.570;7.916;2023-05-07T13:42:37;3.95;;;3.55;;
10154;SDS011;5118;48.570;7.916;2023-05-07T13:45:06;4.57;;;3.70;;
10154;SDS011;5118;48.570;7.916;2023-05-07T13:47:35;3.97;;;3.67;;
10154;SDS011;5118;48.570;7.916;2023-05-07T13:50:06;4.25;;;3.38;;
10154;SDS011;5118;48.570;7.916;2023-05-07T13:52:36;3.80;;;3.50;;
10154;SDS011;5118;48.570;7.916;2023-05-07T13:55:04;4.30;;;3.90;;
10154;SDS011;5118;48.570;7.916;2023-05-07T13:57:35;4.90;;;4.50;;
10154;SDS011;5118;48.570;7.916;2023-05-07T14:00:03;5.13;;;4.13;;
10154;SDS011;5118;48.570;7.916;2023-05-07T14:02:40;4.28;;;3.88;;
10154;SDS011;5118;48.570;7.916;2023-05-07T14:05:09;4.80;;;4.35;;
10154;SDS011;5118;48.570;7.916;2023-05-07T14:07:37;4.75;;;4.30;;
10154;SDS011;5118;48.570;7.916;2023-05-07T14:10:06;4.70;;;4.13;;
10154;SDS011;5118;48.570;7.916;2023-05-07T14:12:38;5.20;;;4.28;;
10154;SDS011;5118;48.570;7.916;2023-05-07T14:15:07;4.53;;;4.13;;
10154;SDS011;5118;48.570;7.916;2023-05-07T14:17:36;3.75;;;3.45;;
10154;SDS011;5118;48.570;7.916;2023-05-07T14:20:05;4.00;;;3.60;;
10154;SDS011;5118;48.570;7.916;2023-05-07T14:22:34;4.03;;;3.72;;
10154;SDS011;5118;48.570;7.916;2023-05-07T14:25:03;4.28;;;3.88;;
10154;SDS011;5118;48.570;7.916;2023-05-07T14:27:33;4.30;;;3.67;;
10154;SDS011;5118;48.570;7.916;2023-05-07T14:30:03;4.55;;;4.00;;
10154;SDS011;5118;48.570;7.916;2023-05-07T14:32:32;4.45;;;4.07;;
10154;SDS011;5118;48.570;7.916;2023-05-07T14:35:00;4.38;;;3.97;;
10154;SDS011;5118;48.570;7.916;2023-05-07T14:37:28;4.40;;;4.00;;
10154;SDS011;5118;48.570;7.916;2023-05-07T14:39:57;5.50;;;4.40;;
10154;SDS011;5118;48.570;7.916;2023-05-07T14:42:25;7.47;;;4.10;;
10154;SDS011;5118;48.570;7.916;2023-05-07T14:44:53;5.57;;;4.30;;
10154;SDS011;5118;48.570;7.916;2023-05-07T14:47:23;4.70;;;4.28;;
10154;SDS011;5118;48.570;7.916;2023-05-07T14:49:51;4.72;;;4.25;;
10154;SDS011;5118;48.570;7.916;2023-05-07T14:52:20;4.88;;;3.97;;
10154;SDS011;5118;48.570;7.916;2023-05-07T14:54:48;4.93;;;4.10;;
10154;SDS011;5118;48.570;7.916;2023-05-07T14:57:16;4.88;;;4.38;;
10154;SDS011;5118;48.570;7.916;2023-05-07T14:59:45;5.00;;;4.50;;
10154;SDS011;5118;48.570;7.916;2023-05-07T15:02:14;5.32;;;4.82;;
10154;SDS011;5118;48.570;7.916;2023-05-07T15:04:48;5.13;;;4.63;;
10154;SDS011;5118;48.570;7.916;2023-05-07T15:07:17;5.43;;;4.93;;
10154;SDS011;5118;48.570;7.916;2023-05-07T15:09:45;6.53;;;4.90;;
10154;SDS011;5118;48.570;7.916;2023-05-07T15:12:13;4.90;;;4.47;;
10154;SDS011;5118;48.570;7.916;2023-05-07T15:14:42;5.10;;;4.63;;
10154;SDS011;5118;48.570;7.916;2023-05-07T15:17:12;5.60;;;5.05;;
10154;SDS011;5118;48.570;7.916;2023-05-07T15:19:41;4.97;;;4.55;;
10154;SDS011;5118;48.570;7.916;2023-05-07T15:22:11;5.03;;;4.13;;